sensor_id;sensor_type;location;lat;lon;timestamp;temperature;humidity
70534;SHT31;58088;51.186;17.130;2023-06-10T00:00:46;17.53;75.62
70534;SHT31;58088;51.186;17.130;2023-06-10T00:03:12;17.54;75.76
70534;SHT31;58088;51.186;17.130;2023-06-10T00:05:38;17.55;75.70
70534;SHT31;58088;51.186;17.130;2023-06-10T00:08:05;17.55;75.69
70534;SHT31;58088;51.186;17.130;2023-06-10T00:10:36;17.56;75.69
70534;SHT31;58088;51.186;17.130;2023-06-10T00:13:04;17.58;75.73
70534;SHT31;58088;51.186;17.130;2023-06-10T00:15:35;17.61;75.92
70534;SHT31;58088;51.186;17.130;2023-06-10T00:18:02;17.61;76.06
70534;SHT31;58088;51.186;17.130;2023-06-10T00:20:31;17.64;76.13
70534;SHT31;58088;51.186;17.130;2023-06-10T00:22:58;17.64;76.16
70534;SHT31;58088;51.186;17.130;2023-06-10T00:25:27;17.68;76.22
70534;SHT31;58088;51.186;17.130;2023-06-10T00:27:55;17.70;76.51
70534;SHT31;58088;51.186;17.130;2023-06-10T00:30:21;17.72;76.68
70534;SHT31;58088;51.186;17.130;2023-06-10T00:32:48;17.71;76.81
70534;SHT31;58088;51.186;17.130;2023-06-10T00:35:15;17.71;76.87
70534;SHT31;58088;51.186;17.130;2023-06-10T00:37:41;17.72;77.03
70534;SHT31;58088;51.186;17.130;2023-06-10T00:40:08;17.73;77.18
70534;SHT31;58088;51.186;17.130;2023-06-10T00:42:35;17.75;77.08
70534;SHT31;58088;51.186;17.130;2023-06-10T00:45:02;17.76;77.08
70534;SHT31;58088;51.186;17.130;2023-06-10T00:47:28;17.76;77.20
70534;SHT31;58088;51.186;17.130;2023-06-10T00:49:56;17.77;77.24
70534;SHT31;58088;51.186;17.130;2023-06-10T00:52:25;17.77;77.26
70534;SHT31;58088;51.186;17.130;2023-06-10T00:54:56;17.77;77.19
70534;SHT31;58088;51.186;17.130;2023-06-10T00:57:25;17.78;77.15
70534;SHT31;58088;51.186;17.130;2023-06-10T00:59:53;17.78;77.15
70534;SHT31;58088;51.186;17.130;2023-06-10T01:02:21;17.79;77.20
70534;SHT31;58088;51.186;17.130;2023-06-10T01:04:51;17.80;77.41
70534;SHT31;58088;51.186;17.130;2023-06-10T01:10:12;17.81;77.81
70534;SHT31;58088;51.186;17.130;2023-06-10T01:13:05;17.83;77.66
70534;SHT31;58088;51.186;17.130;2023-06-10T01:15:41;17.85;77.62
70534;SHT31;58088;51.186;17.130;2023-06-10T01:18:10;17.88;77.55
70534;SHT31;58088;51.186;17.130;2023-06-10T01:20:44;17.90;77.58
70534;SHT31;58088;51.186;17.130;2023-06-10T01:23:15;17.91;77.45
70534;SHT31;58088;51.186;17.130;2023-06-10T01:26:06;17.92;77.49
70534;SHT31;58088;51.186;17.130;2023-06-10T01:34:44;17.90;77.57
70534;SHT31;58088;51.186;17.130;2023-06-10T01:37:16;17.92;77.77
70534;SHT31;58088;51.186;17.130;2023-06-10T01:39:49;17.93;77.91
70534;SHT31;58088;51.186;17.130;2023-06-10T01:42:19;17.97;77.85
70534;SHT31;58088;51.186;17.130;2023-06-10T01:44:47;17.99;77.66
70534;SHT31;58088;51.186;17.130;2023-06-10T01:47:13;17.99;77.62
70534;SHT31;58088;51.186;17.130;2023-06-10T01:49:39;17.97;77.76
70534;SHT31;58088;51.186;17.130;2023-06-10T01:52:07;17.98;77.80
70534;SHT31;58088;51.186;17.130;2023-06-10T01:54:33;17.99;77.85
70534;SHT31;58088;51.186;17.130;2023-06-10T01:57:01;18.01;77.89
70534;SHT31;58088;51.186;17.130;2023-06-10T01:59:27;18.04;78.04
70534;SHT31;58088;51.186;17.130;2023-06-10T02:05:16;18.12;78.24
70534;SHT31;58088;51.186;17.130;2023-06-10T02:07:43;18.17;78.23
70534;SHT31;58088;51.186;17.130;2023-06-10T02:10:09;18.21;78.13
70534;SHT31;58088;51.186;17.130;2023-06-10T02:12:36;18.22;77.99
70534;SHT31;58088;51.186;17.130;2023-06-10T02:15:03;18.22;77.90
70534;SHT31;58088;51.186;17.130;2023-06-10T02:17:29;18.23;77.79
70534;SHT31;58088;51.186;17.130;2023-06-10T02:19:55;18.27;77.61
70534;SHT31;58088;51.186;17.130;2023-06-10T02:22:22;18.27;77.56
70534;SHT31;58088;51.186;17.130;2023-06-10T02:24:49;18.28;77.69
70534;SHT31;58088;51.186;17.130;2023-06-10T02:27:16;18.30;77.62
70534;SHT31;58088;51.186;17.130;2023-06-10T02:29:43;18.30;77.53
70534;SHT31;58088;51.186;17.130;2023-06-10T02:32:10;18.29;77.41
70534;SHT31;58088;51.186;17.130;2023-06-10T02:34:36;18.29;77.29
70534;SHT31;58088;51.186;17.130;2023-06-10T02:37:02;18.30;77.20
70534;SHT31;58088;51.186;17.130;2023-06-10T02:39:29;18.30;77.22
70534;SHT31;58088;51.186;17.130;2023-06-10T02:41:56;18.29;77.11
70534;SHT31;58088;51.186;17.130;2023-06-10T02:44:22;18.30;77.10
70534;SHT31;58088;51.186;17.130;2023-06-10T02:46:48;18.30;77.14
70534;SHT31;58088;51.186;17.130;2023-06-10T02:49:15;18.29;77.04
70534;SHT31;58088;51.186;17.130;2023-06-10T02:51:42;18.29;76.99
70534;SHT31;58088;51.186;17.130;2023-06-10T02:54:08;18.29;76.91
70534;SHT31;58088;51.186;17.130;2023-06-10T02:56:35;18.30;76.93
70534;SHT31;58088;51.186;17.130;2023-06-10T02:59:02;18.31;76.95
70534;SHT31;58088;51.186;17.130;2023-06-10T03:01:29;18.30;76.93
70534;SHT31;58088;51.186;17.130;2023-06-10T03:04:06;18.31;76.92
70534;SHT31;58088;51.186;17.130;2023-06-10T03:06:33;18.31;76.88
70534;SHT31;58088;51.186;17.130;2023-06-10T03:09:10;18.30;76.80
70534;SHT31;58088;51.186;17.130;2023-06-10T03:11:37;18.30;76.87
70534;SHT31;58088;51.186;17.130;2023-06-10T03:14:03;18.31;76.70
70534;SHT31;58088;51.186;17.130;2023-06-10T03:16:31;18.33;76.52
70534;SHT31;58088;51.186;17.130;2023-06-10T03:18:58;18.36;76.46
70534;SHT31;58088;51.186;17.130;2023-06-10T03:21:24;18.40;76.29
70534;SHT31;58088;51.186;17.130;2023-06-10T03:23:52;18.44;76.19
70534;SHT31;58088;51.186;17.130;2023-06-10T03:26:18;18.48;76.07
70534;SHT31;58088;51.186;17.130;2023-06-10T03:28:47;18.52;75.94
70534;SHT31;58088;51.186;17.130;2023-06-10T03:31:14;18.55;75.90
70534;SHT31;58088;51.186;17.130;2023-06-10T03:33:42;18.60;75.87
70534;SHT31;58088;51.186;17.130;2023-06-10T03:36:09;18.64;75.78
70534;SHT31;58088;51.186;17.130;2023-06-10T03:38:36;18.66;75.66
70534;SHT31;58088;51.186;17.130;2023-06-10T03:41:03;18.70;75.69
70534;SHT31;58088;51.186;17.130;2023-06-10T03:43:29;18.74;75.67
70534;SHT31;58088;51.186;17.130;2023-06-10T03:45:57;18.77;75.62
70534;SHT31;58088;51.186;17.130;2023-06-10T03:48:23;18.80;75.51
70534;SHT31;58088;51.186;17.130;2023-06-10T03:50:51;18.85;75.50
70534;SHT31;58088;51.186;17.130;2023-06-10T03:53:18;18.90;75.46
70534;SHT31;58088;51.186;17.130;2023-06-10T03:55:45;18.95;75.34
70534;SHT31;58088;51.186;17.130;2023-06-10T03:58:12;18.98;75.23
70534;SHT31;58088;51.186;17.130;2023-06-10T04:00:41;18.99;75.29
70534;SHT31;58088;51.186;17.130;2023-06-10T04:03:08;19.03;75.36
70534;SHT31;58088;51.186;17.130;2023-06-10T04:05:42;19.05;75.24
70534;SHT31;58088;51.186;17.130;2023-06-10T04:08:09;19.06;75.09
70534;SHT31;58088;51.186;17.130;2023-06-10T04:10:35;19.07;75.01
70534;SHT31;58088;51.186;17.130;2023-06-10T04:13:02;19.08;74.99
70534;SHT31;58088;51.186;17.130;2023-06-10T04:15:32;19.09;74.97
70534;SHT31;58088;51.186;17.130;2023-06-10T04:18:00;19.11;74.92
70534;SHT31;58088;51.186;17.130;2023-06-10T04:20:29;19.14;74.88
70534;SHT31;58088;51.186;17.130;2023-06-10T04:22:56;19.14;74.87
70534;SHT31;58088;51.186;17.130;2023-06-10T04:25:23;19.16;74.90
70534;SHT31;58088;51.186;17.130;2023-06-10T04:27:50;19.17;74.91
70534;SHT31;58088;51.186;17.130;2023-06-10T04:30:16;19.17;74.91
70534;SHT31;58088;51.186;17.130;2023-06-10T04:32:44;19.17;74.97
70534;SHT31;58088;51.186;17.130;2023-06-10T04:35:14;19.18;74.89
70534;SHT31;58088;51.186;17.130;2023-06-10T04:37:42;19.18;74.88
70534;SHT31;58088;51.186;17.130;2023-06-10T04:40:09;19.20;74.91
70534;SHT31;58088;51.186;17.130;2023-06-10T04:42:36;19.23;74.97
70534;SHT31;58088;51.186;17.130;2023-06-10T04:45:03;19.25;74.93
70534;SHT31;58088;51.186;17.130;2023-06-10T04:47:30;19.29;74.83
70534;SHT31;58088;51.186;17.130;2023-06-10T04:50:00;19.33;74.78
70534;SHT31;58088;51.186;17.130;2023-06-10T04:52:28;19.36;74.71
70534;SHT31;58088;51.186;17.130;2023-06-10T04:54:55;19.38;74.68
70534;SHT31;58088;51.186;17.130;2023-06-10T04:57:24;19.42;74.71
70534;SHT31;58088;51.186;17.130;2023-06-10T04:59:52;19.44;74.66
70534;SHT31;58088;51.186;17.130;2023-06-10T05:02:18;19.46;74.61
70534;SHT31;58088;51.186;17.130;2023-06-10T05:04:45;19.50;74.60
70534;SHT31;58088;51.186;17.130;2023-06-10T05:07:11;19.53;74.58
70534;SHT31;58088;51.186;17.130;2023-06-10T05:09:38;19.57;74.48
70534;SHT31;58088;51.186;17.130;2023-06-10T05:12:04;19.60;74.48
70534;SHT31;58088;51.186;17.130;2023-06-10T05:14:32;19.65;74.48
70534;SHT31;58088;51.186;17.130;2023-06-10T05:16:58;19.71;74.49
70534;SHT31;58088;51.186;17.130;2023-06-10T05:19:25;19.76;74.49
70534;SHT31;58088;51.186;17.130;2023-06-10T05:21:53;19.81;74.40
70534;SHT31;58088;51.186;17.130;2023-06-10T05:24:19;19.87;74.30
70534;SHT31;58088;51.186;17.130;2023-06-10T05:26:45;19.92;74.25
70534;SHT31;58088;51.186;17.130;2023-06-10T05:29:14;19.97;74.26
70534;SHT31;58088;51.186;17.130;2023-06-10T05:31:41;20.02;74.25
70534;SHT31;58088;51.186;17.130;2023-06-10T05:34:08;20.09;74.29
70534;SHT31;58088;51.186;17.130;2023-06-10T05:36:34;20.17;74.34
70534;SHT31;58088;51.186;17.130;2023-06-10T05:39:01;20.23;74.32
70534;SHT31;58088;51.186;17.130;2023-06-10T05:41:27;20.31;74.15
70534;SHT31;58088;51.186;17.130;2023-06-10T05:43:53;20.40;73.96
70534;SHT31;58088;51.186;17.130;2023-06-10T05:46:19;20.51;73.87
70534;SHT31;58088;51.186;17.130;2023-06-10T05:48:46;20.80;73.76
70534;SHT31;58088;51.186;17.130;2023-06-10T05:51:12;21.10;73.35
70534;SHT31;58088;51.186;17.130;2023-06-10T05:53:38;21.39;72.59
70534;SHT31;58088;51.186;17.130;2023-06-10T05:56:05;21.51;72.11
70534;SHT31;58088;51.186;17.130;2023-06-10T05:58:32;21.59;72.07
70534;SHT31;58088;51.186;17.130;2023-06-10T06:00:58;21.68;71.73
70534;SHT31;58088;51.186;17.130;2023-06-10T06:03:25;21.74;71.50
70534;SHT31;58088;51.186;17.130;2023-06-10T06:05:53;21.76;71.02
70534;SHT31;58088;51.186;17.130;2023-06-10T06:08:20;21.75;70.73
70534;SHT31;58088;51.186;17.130;2023-06-10T06:10:46;21.74;70.59
70534;SHT31;58088;51.186;17.130;2023-06-10T06:13:15;21.72;70.61
70534;SHT31;58088;51.186;17.130;2023-06-10T06:15:42;21.72;70.56
70534;SHT31;58088;51.186;17.130;2023-06-10T06:18:08;21.76;70.71
70534;SHT31;58088;51.186;17.130;2023-06-10T06:20:35;21.75;70.12
70534;SHT31;58088;51.186;17.130;2023-06-10T06:23:07;21.75;70.34
70534;SHT31;58088;51.186;17.130;2023-06-10T06:25:36;21.74;70.17
70534;SHT31;58088;51.186;17.130;2023-06-10T06:28:07;21.75;70.15
70534;SHT31;58088;51.186;17.130;2023-06-10T06:30:35;21.81;70.36
70534;SHT31;58088;51.186;17.130;2023-06-10T06:33:01;21.87;70.32
70534;SHT31;58088;51.186;17.130;2023-06-10T06:35:30;21.94;70.23
70534;SHT31;58088;51.186;17.130;2023-06-10T06:37:58;22.02;70.03
70534;SHT31;58088;51.186;17.130;2023-06-10T06:40:25;22.05;69.41
70534;SHT31;58088;51.186;17.130;2023-06-10T06:42:51;22.11;69.35
70534;SHT31;58088;51.186;17.130;2023-06-10T06:45:37;22.18;69.38
70534;SHT31;58088;51.186;17.130;2023-06-10T06:48:04;22.26;69.23
70534;SHT31;58088;51.186;17.130;2023-06-10T06:50:31;22.36;69.30
70534;SHT31;58088;51.186;17.130;2023-06-10T06:52:57;22.44;69.27
70534;SHT31;58088;51.186;17.130;2023-06-10T06:55:23;22.55;68.96
70534;SHT31;58088;51.186;17.130;2023-06-10T06:57:50;22.64;68.78
70534;SHT31;58088;51.186;17.130;2023-06-10T07:00:16;22.71;68.49
70534;SHT31;58088;51.186;17.130;2023-06-10T07:02:43;22.76;68.41
70534;SHT31;58088;51.186;17.130;2023-06-10T07:05:09;22.82;68.09
70534;SHT31;58088;51.186;17.130;2023-06-10T07:07:35;22.85;67.60
70534;SHT31;58088;51.186;17.130;2023-06-10T07:10:02;22.90;67.77
70534;SHT31;58088;51.186;17.130;2023-06-10T07:12:28;23.00;67.69
70534;SHT31;58088;51.186;17.130;2023-06-10T07:14:56;23.05;66.86
70534;SHT31;58088;51.186;17.130;2023-06-10T07:17:22;23.11;66.89
70534;SHT31;58088;51.186;17.130;2023-06-10T07:19:48;23.19;66.82
70534;SHT31;58088;51.186;17.130;2023-06-10T07:22:15;23.25;66.41
70534;SHT31;58088;51.186;17.130;2023-06-10T07:24:41;23.24;66.28
70534;SHT31;58088;51.186;17.130;2023-06-10T07:27:07;23.25;65.96
70534;SHT31;58088;51.186;17.130;2023-06-10T07:29:35;23.26;66.10
70534;SHT31;58088;51.186;17.130;2023-06-10T07:32:05;23.30;66.02
70534;SHT31;58088;51.186;17.130;2023-06-10T07:34:31;23.40;66.27
70534;SHT31;58088;51.186;17.130;2023-06-10T07:36:58;23.50;66.12
70534;SHT31;58088;51.186;17.130;2023-06-10T07:39:24;23.53;65.82
70534;SHT31;58088;51.186;17.130;2023-06-10T07:41:50;23.60;65.86
70534;SHT31;58088;51.186;17.130;2023-06-10T07:44:19;23.68;65.74
70534;SHT31;58088;51.186;17.130;2023-06-10T07:46:45;23.71;65.21
70534;SHT31;58088;51.186;17.130;2023-06-10T07:49:12;23.74;64.70
70534;SHT31;58088;51.186;17.130;2023-06-10T07:51:38;23.79;64.47
70534;SHT31;58088;51.186;17.130;2023-06-10T07:54:04;23.87;64.35
70534;SHT31;58088;51.186;17.130;2023-06-10T07:56:30;23.95;64.31
70534;SHT31;58088;51.186;17.130;2023-06-10T07:58:57;24.04;63.77
70534;SHT31;58088;51.186;17.130;2023-06-10T08:01:23;24.07;63.25
70534;SHT31;58088;51.186;17.130;2023-06-10T08:03:50;24.15;63.13
70534;SHT31;58088;51.186;17.130;2023-06-10T08:06:16;24.25;62.97
70534;SHT31;58088;51.186;17.130;2023-06-10T08:08:43;24.37;62.60
70534;SHT31;58088;51.186;17.130;2023-06-10T08:11:12;24.50;62.22
70534;SHT31;58088;51.186;17.130;2023-06-10T08:13:39;24.58;61.51
70534;SHT31;58088;51.186;17.130;2023-06-10T08:16:06;24.62;61.04
70534;SHT31;58088;51.186;17.130;2023-06-10T08:18:33;24.66;60.88
70534;SHT31;58088;51.186;17.130;2023-06-10T08:20:59;24.79;61.20
70534;SHT31;58088;51.186;17.130;2023-06-10T08:23:26;24.93;60.90
70534;SHT31;58088;51.186;17.130;2023-06-10T08:25:52;25.03;61.03
70534;SHT31;58088;51.186;17.130;2023-06-10T08:28:18;25.14;60.68
70534;SHT31;58088;51.186;17.130;2023-06-10T08:30:44;25.23;60.00
70534;SHT31;58088;51.186;17.130;2023-06-10T08:33:11;25.34;59.79
70534;SHT31;58088;51.186;17.130;2023-06-10T08:35:37;25.49;59.81
70534;SHT31;58088;51.186;17.130;2023-06-10T08:38:03;25.69;59.12
70534;SHT31;58088;51.186;17.130;2023-06-10T08:40:30;25.82;58.30
70534;SHT31;58088;51.186;17.130;2023-06-10T08:43:06;25.96;57.64
70534;SHT31;58088;51.186;17.130;2023-06-10T08:45:36;26.15;58.69
70534;SHT31;58088;51.186;17.130;2023-06-10T08:48:03;26.27;57.85
70534;SHT31;58088;51.186;17.130;2023-06-10T08:50:34;26.35;58.15
70534;SHT31;58088;51.186;17.130;2023-06-10T08:53:04;26.48;57.25
70534;SHT31;58088;51.186;17.130;2023-06-10T08:55:36;26.67;57.16
70534;SHT31;58088;51.186;17.130;2023-06-10T08:58:07;26.83;57.68
70534;SHT31;58088;51.186;17.130;2023-06-10T09:00:34;26.93;57.25
70534;SHT31;58088;51.186;17.130;2023-06-10T09:03:01;26.87;56.83
70534;SHT31;58088;51.186;17.130;2023-06-10T09:05:29;26.82;56.67
70534;SHT31;58088;51.186;17.130;2023-06-10T09:07:58;26.75;56.59
70534;SHT31;58088;51.186;17.130;2023-06-10T09:10:27;26.89;56.63
70534;SHT31;58088;51.186;17.130;2023-06-10T09:12:53;27.08;56.20
70534;SHT31;58088;51.186;17.130;2023-06-10T09:15:20;27.26;55.86
70534;SHT31;58088;51.186;17.130;2023-06-10T09:17:46;27.42;55.64
70534;SHT31;58088;51.186;17.130;2023-06-10T09:20:17;27.51;55.06
70534;SHT31;58088;51.186;17.130;2023-06-10T09:22:44;27.72;54.61
70534;SHT31;58088;51.186;17.130;2023-06-10T09:25:11;27.75;54.00
70534;SHT31;58088;51.186;17.130;2023-06-10T09:27:46;27.81;53.87
70534;SHT31;58088;51.186;17.130;2023-06-10T09:30:26;27.91;53.80
70534;SHT31;58088;51.186;17.130;2023-06-10T09:32:55;27.89;53.29
70534;SHT31;58088;51.186;17.130;2023-06-10T09:35:23;27.99;53.71
70534;SHT31;58088;51.186;17.130;2023-06-10T09:37:55;28.17;53.52
70534;SHT31;58088;51.186;17.130;2023-06-10T09:40:23;28.27;53.32
70534;SHT31;58088;51.186;17.130;2023-06-10T09:42:58;28.39;52.77
70534;SHT31;58088;51.186;17.130;2023-06-10T09:45:32;28.36;51.29
70534;SHT31;58088;51.186;17.130;2023-06-10T09:47:58;28.34;51.00
70534;SHT31;58088;51.186;17.130;2023-06-10T09:50:26;28.36;50.83
70534;SHT31;58088;51.186;17.130;2023-06-10T09:52:52;28.22;50.44
70534;SHT31;58088;51.186;17.130;2023-06-10T09:55:18;28.17;51.07
70534;SHT31;58088;51.186;17.130;2023-06-10T09:57:45;28.29;51.11
70534;SHT31;58088;51.186;17.130;2023-06-10T10:00:15;28.41;50.15
70534;SHT31;58088;51.186;17.130;2023-06-10T10:02:52;28.45;49.84
70534;SHT31;58088;51.186;17.130;2023-06-10T10:05:19;28.49;49.19
70534;SHT31;58088;51.186;17.130;2023-06-10T10:07:47;28.56;48.62
70534;SHT31;58088;51.186;17.130;2023-06-10T10:10:15;28.64;48.25
70534;SHT31;58088;51.186;17.130;2023-06-10T10:12:43;28.67;47.81
70534;SHT31;58088;51.186;17.130;2023-06-10T10:15:13;28.77;48.15
70534;SHT31;58088;51.186;17.130;2023-06-10T10:17:48;28.90;48.07
70534;SHT31;58088;51.186;17.130;2023-06-10T10:20:31;28.85;47.28
70534;SHT31;58088;51.186;17.130;2023-06-10T10:23:02;28.84;46.64
70534;SHT31;58088;51.186;17.130;2023-06-10T10:25:32;28.90;46.13
70534;SHT31;58088;51.186;17.130;2023-06-10T10:28:10;28.88;45.43
70534;SHT31;58088;51.186;17.130;2023-06-10T10:30:42;28.95;46.09
70534;SHT31;58088;51.186;17.130;2023-06-10T10:33:22;28.99;45.18
70534;SHT31;58088;51.186;17.130;2023-06-10T10:36:13;29.00;45.06
70534;SHT31;58088;51.186;17.130;2023-06-10T10:38:41;28.92;44.93
70534;SHT31;58088;51.186;17.130;2023-06-10T10:41:10;28.95;44.59
70534;SHT31;58088;51.186;17.130;2023-06-10T10:43:37;29.07;43.78
70534;SHT31;58088;51.186;17.130;2023-06-10T10:46:15;29.21;44.28
70534;SHT31;58088;51.186;17.130;2023-06-10T10:48:43;29.33;44.00
70534;SHT31;58088;51.186;17.130;2023-06-10T10:51:17;29.41;43.89
70534;SHT31;58088;51.186;17.130;2023-06-10T10:53:43;29.48;42.36
70534;SHT31;58088;51.186;17.130;2023-06-10T10:56:14;29.55;41.62
70534;SHT31;58088;51.186;17.130;2023-06-10T10:59:06;29.54;40.68
70534;SHT31;58088;51.186;17.130;2023-06-10T11:01:41;29.34;40.13
70534;SHT31;58088;51.186;17.130;2023-06-10T11:04:11;29.30;39.45
70534;SHT31;58088;51.186;17.130;2023-06-10T11:06:38;29.39;39.60
70534;SHT31;58088;51.186;17.130;2023-06-10T11:11:56;29.55;39.01
70534;SHT31;58088;51.186;17.130;2023-06-10T11:14:27;29.50;38.51
70534;SHT31;58088;51.186;17.130;2023-06-10T11:16:58;29.50;37.92
70534;SHT31;58088;51.186;17.130;2023-06-10T11:19:34;29.42;38.13
70534;SHT31;58088;51.186;17.130;2023-06-10T11:22:04;29.42;38.27
70534;SHT31;58088;51.186;17.130;2023-06-10T11:24:33;29.35;38.61
70534;SHT31;58088;51.186;17.130;2023-06-10T11:27:15;29.25;38.44
70534;SHT31;58088;51.186;17.130;2023-06-10T11:32:29;28.93;39.16
70534;SHT31;58088;51.186;17.130;2023-06-10T11:34:58;28.99;39.04
70534;SHT31;58088;51.186;17.130;2023-06-10T11:37:25;29.03;38.68
70534;SHT31;58088;51.186;17.130;2023-06-10T11:39:56;29.08;37.56
70534;SHT31;58088;51.186;17.130;2023-06-10T11:42:23;29.16;36.40
70534;SHT31;58088;51.186;17.130;2023-06-10T11:44:50;29.19;35.92
70534;SHT31;58088;51.186;17.130;2023-06-10T11:47:18;29.20;34.93
70534;SHT31;58088;51.186;17.130;2023-06-10T11:49:46;29.24;34.76
70534;SHT31;58088;51.186;17.130;2023-06-10T11:52:28;29.31;34.83
70534;SHT31;58088;51.186;17.130;2023-06-10T11:54:58;29.39;34.11
70534;SHT31;58088;51.186;17.130;2023-06-10T11:57:25;29.48;34.41
70534;SHT31;58088;51.186;17.130;2023-06-10T11:59:51;29.56;33.87
70534;SHT31;58088;51.186;17.130;2023-06-10T12:02:17;29.55;31.69
70534;SHT31;58088;51.186;17.130;2023-06-10T12:04:44;29.56;33.08
70534;SHT31;58088;51.186;17.130;2023-06-10T12:07:16;29.64;33.47
70534;SHT31;58088;51.186;17.130;2023-06-10T12:09:52;29.70;33.13
70534;SHT31;58088;51.186;17.130;2023-06-10T12:12:25;29.78;33.62
70534;SHT31;58088;51.186;17.130;2023-06-10T12:14:52;29.90;33.88
70534;SHT31;58088;51.186;17.130;2023-06-10T12:19:56;29.69;33.70
70534;SHT31;58088;51.186;17.130;2023-06-10T12:22:24;29.53;34.25
70534;SHT31;58088;51.186;17.130;2023-06-10T12:25:00;29.43;34.72
70534;SHT31;58088;51.186;17.130;2023-06-10T12:27:30;29.52;34.69
70534;SHT31;58088;51.186;17.130;2023-06-10T12:29:57;29.53;34.00
70534;SHT31;58088;51.186;17.130;2023-06-10T12:32:43;29.55;34.08
70534;SHT31;58088;51.186;17.130;2023-06-10T12:35:11;29.59;34.34
70534;SHT31;58088;51.186;17.130;2023-06-10T12:37:53;29.56;33.26
70534;SHT31;58088;51.186;17.130;2023-06-10T12:40:26;29.40;33.06
70534;SHT31;58088;51.186;17.130;2023-06-10T12:42:54;29.36;33.22
70534;SHT31;58088;51.186;17.130;2023-06-10T12:50:37;29.35;32.99
70534;SHT31;58088;51.186;17.130;2023-06-10T12:53:06;29.39;33.54
70534;SHT31;58088;51.186;17.130;2023-06-10T12:55:34;29.45;33.75
70534;SHT31;58088;51.186;17.130;2023-06-10T12:58:00;29.38;33.47
70534;SHT31;58088;51.186;17.130;2023-06-10T13:00:27;29.27;33.31
70534;SHT31;58088;51.186;17.130;2023-06-10T13:02:57;29.20;32.42
70534;SHT31;58088;51.186;17.130;2023-06-10T13:05:31;29.17;32.86
70534;SHT31;58088;51.186;17.130;2023-06-10T13:07:58;29.13;32.42
70534;SHT31;58088;51.186;17.130;2023-06-10T13:10:25;29.15;31.91
70534;SHT31;58088;51.186;17.130;2023-06-10T13:12:52;29.20;32.14
70534;SHT31;58088;51.186;17.130;2023-06-10T13:15:20;29.27;32.13
70534;SHT31;58088;51.186;17.130;2023-06-10T13:17:46;29.25;30.70
70534;SHT31;58088;51.186;17.130;2023-06-10T13:20:15;29.20;30.31
70534;SHT31;58088;51.186;17.130;2023-06-10T13:22:42;29.13;29.20
70534;SHT31;58088;51.186;17.130;2023-06-10T13:25:08;29.08;28.95
70534;SHT31;58088;51.186;17.130;2023-06-10T13:27:35;29.01;28.46
70534;SHT31;58088;51.186;17.130;2023-06-10T13:30:05;29.05;29.95
70534;SHT31;58088;51.186;17.130;2023-06-10T13:32:34;29.05;30.23
70534;SHT31;58088;51.186;17.130;2023-06-10T13:35:04;29.08;30.50
70534;SHT31;58088;51.186;17.130;2023-06-10T13:37:31;29.10;30.97
70534;SHT31;58088;51.186;17.130;2023-06-10T13:39:59;29.12;30.15
70534;SHT31;58088;51.186;17.130;2023-06-10T13:42:25;29.10;29.62
70534;SHT31;58088;51.186;17.130;2023-06-10T13:44:52;29.04;29.97
70534;SHT31;58088;51.186;17.130;2023-06-10T13:47:18;29.05;29.80
70534;SHT31;58088;51.186;17.130;2023-06-10T13:49:44;29.09;30.05
70534;SHT31;58088;51.186;17.130;2023-06-10T13:52:11;29.10;29.84
70534;SHT31;58088;51.186;17.130;2023-06-10T13:54:38;29.10;29.54
70534;SHT31;58088;51.186;17.130;2023-06-10T13:57:04;29.12;29.34
70534;SHT31;58088;51.186;17.130;2023-06-10T13:59:31;29.05;27.88
70534;SHT31;58088;51.186;17.130;2023-06-10T14:01:57;29.04;28.43
70534;SHT31;58088;51.186;17.130;2023-06-10T14:04:23;29.02;29.25
70534;SHT31;58088;51.186;17.130;2023-06-10T14:06:50;29.08;29.30
70534;SHT31;58088;51.186;17.130;2023-06-10T14:09:16;29.09;29.21
70534;SHT31;58088;51.186;17.130;2023-06-10T14:11:43;29.00;27.98
70534;SHT31;58088;51.186;17.130;2023-06-10T14:14:09;28.92;27.82
70534;SHT31;58088;51.186;17.130;2023-06-10T14:16:35;28.88;28.56
70534;SHT31;58088;51.186;17.130;2023-06-10T14:19:02;28.86;28.36
70534;SHT31;58088;51.186;17.130;2023-06-10T14:21:28;28.86;28.60
70534;SHT31;58088;51.186;17.130;2023-06-10T14:23:54;28.88;28.84
70534;SHT31;58088;51.186;17.130;2023-06-10T14:26:20;28.90;28.96
70534;SHT31;58088;51.186;17.130;2023-06-10T14:28:47;28.95;29.24
70534;SHT31;58088;51.186;17.130;2023-06-10T14:31:15;28.94;28.89
70534;SHT31;58088;51.186;17.130;2023-06-10T14:33:42;28.92;28.89
70534;SHT31;58088;51.186;17.130;2023-06-10T14:36:09;28.88;27.56
70534;SHT31;58088;51.186;17.130;2023-06-10T14:38:36;28.85;27.85
70534;SHT31;58088;51.186;17.130;2023-06-10T14:41:02;28.90;28.23
70534;SHT31;58088;51.186;17.130;2023-06-10T14:43:29;28.94;28.37
70534;SHT31;58088;51.186;17.130;2023-06-10T14:45:55;28.93;28.54
70534;SHT31;58088;51.186;17.130;2023-06-10T14:48:22;28.91;28.40
70534;SHT31;58088;51.186;17.130;2023-06-10T14:50:48;28.85;28.28
70534;SHT31;58088;51.186;17.130;2023-06-10T14:53:17;28.84;28.78
70534;SHT31;58088;51.186;17.130;2023-06-10T14:55:44;28.89;28.39
70534;SHT31;58088;51.186;17.130;2023-06-10T14:58:10;28.92;28.80
70534;SHT31;58088;51.186;17.130;2023-06-10T15:00:36;28.97;29.08
70534;SHT31;58088;51.186;17.130;2023-06-10T15:03:03;28.98;28.54
70534;SHT31;58088;51.186;17.130;2023-06-10T15:05:29;28.97;28.49
70534;SHT31;58088;51.186;17.130;2023-06-10T15:07:55;28.99;28.70
70534;SHT31;58088;51.186;17.130;2023-06-10T15:10:22;28.95;28.05
70534;SHT31;58088;51.186;17.130;2023-06-10T15:12:48;28.89;27.97
70534;SHT31;58088;51.186;17.130;2023-06-10T15:15:21;28.86;27.64
70534;SHT31;58088;51.186;17.130;2023-06-10T15:17:49;28.82;28.03
70534;SHT31;58088;51.186;17.130;2023-06-10T15:20:15;28.79;28.13
70534;SHT31;58088;51.186;17.130;2023-06-10T15:22:41;28.73;28.21
70534;SHT31;58088;51.186;17.130;2023-06-10T15:25:07;28.65;27.88
70534;SHT31;58088;51.186;17.130;2023-06-10T15:27:34;28.65;28.54
70534;SHT31;58088;51.186;17.130;2023-06-10T15:30:00;28.62;28.20
70534;SHT31;58088;51.186;17.130;2023-06-10T15:32:28;28.61;28.73
70534;SHT31;58088;51.186;17.130;2023-06-10T15:34:54;28.58;28.04
70534;SHT31;58088;51.186;17.130;2023-06-10T15:37:20;28.55;27.41
70534;SHT31;58088;51.186;17.130;2023-06-10T15:39:47;28.49;26.93
70534;SHT31;58088;51.186;17.130;2023-06-10T15:42:13;28.48;27.38
70534;SHT31;58088;51.186;17.130;2023-06-10T15:44:39;28.41;26.32
70534;SHT31;58088;51.186;17.130;2023-06-10T15:47:05;28.37;26.72